METAR Data
IDs: Format: Raw Decoded Include TAF

Data at: 0203 UTC 27 Jun 2019

MRPV 270000Z 09014KT 9999 FEW040 BKN200 22/16 A2996 NOSIG

MROC 270200Z 10011KT CAVOK 23/16 A2995 NOSIG

No METAR found for